Rockwell City, Iowa
Current Conditions -  °F | °C
As of 8:15 AM on Saturday 22 Nov 2014 (Local Time) from KFOD Reporting Station
Overcast Overcast  
Wind Chill: 29°   Ceiling: 200
Heat Index: 36°   Visibility: 0mi
Dew Point: 34°   Wind: 8mph
Humidity: 93%   Direction: 210°SSW
Pressure: 29.84"   Gusts: NA
Location:  42.4°N, 94.63°W
Report Text: KFOD 221415Z AUTO 21007KT M1/4SM OVC002 02/01 A2984 RMK AO1
Loading
Personal Weather Stations






























Interactive Weather Map New forecast layout! Learn more

10-Day Weather Forecast

Advertisements
Track Severe Weather on mobile